Time;durP1;ratioP1;P1;durP2;ratioP2;P2;SDS_P1;SDS_P2;PMS_P1;PMS_P2;Temp;Humidity;BMP_temperature;BMP_pressure;BME280_temperature;BME280_humidity;BME280_pressure;Samples;Min_cycle;Max_cycle;Signal;HPM_P1;HPM_P2
2022/08/24 00:00:41;;;;;;;9.30;5.00;;;;;;;19.16;80.93;100538.24;89255;1263;88700;-59
2022/08/24 00:02:49;;;;;;;;;;;;;;;19.14;80.96;100537.27;89215;1263;95119;-61
2022/08/24 00:04:58;;;;;;;8.70;5.50;;;;;;;19.11;81.01;100537.23;89268;1263;81022;-61
2022/08/24 00:07:08;;;;;;;9.30;5.40;;;;;;;19.08;81.13;100539.16;89255;1263;82462;-61
2022/08/24 00:09:18;;;;;;;7.50;4.80;;;;;;;19.07;81.17;100537.80;89266;1263;96986;-61
2022/08/24 00:11:28;;;;;;;8.60;5.10;;;;;;;19.06;81.31;100539.50;89258;1263;87419;-60
2022/08/24 00:13:38;;;;;;;8.10;5.30;;;;;;;19.06;81.26;100544.11;89264;1263;95652;-61
2022/08/24 00:15:47;;;;;;;7.90;5.90;;;;;;;19.04;81.36;100539.95;89255;1263;80668;-62
2022/08/24 00:17:58;;;;;;;7.60;5.40;;;;;;;19.07;81.43;100539.02;89253;1263;82130;-61
2022/08/24 00:20:11;;;;;;;8.00;5.50;;;;;;;19.06;81.55;100540.86;89259;1263;98721;-61
2022/08/24 00:22:24;;;;;;;7.60;5.40;;;;;;;19.05;81.55;100542.76;89285;1263;88668;-60
2022/08/24 00:24:33;;;;;;;8.50;5.60;;;;;;;19.07;81.67;100542.85;89269;1263;95102;-60
2022/08/24 00:26:43;;;;;;;8.00;5.90;;;;;;;19.10;81.72;100539.03;89275;1263;82036;-61
2022/08/24 00:28:52;;;;;;;7.20;5.10;;;;;;;19.14;81.74;100539.01;89253;1263;83094;-60
2022/08/24 00:31:01;;;;;;;8.40;5.10;;;;;;;19.14;81.74;100538.90;89299;1263;99401;-61
2022/08/24 00:33:11;;;;;;;7.90;5.40;;;;;;;19.12;81.77;100539.29;89265;1263;88004;-62
2022/08/24 00:35:24;;;;;;;6.40;5.50;;;;;;;19.12;81.83;100539.67;89237;1263;94738;-61
2022/08/24 00:37:39;;;;;;;10.10;5.70;;;;;;;19.14;81.84;100543.34;89273;1263;81435;-60
2022/08/24 00:39:47;;;;;;;7.40;5.40;;;;;;;19.13;81.85;100538.05;89289;1263;82729;-60
2022/08/24 00:41:57;;;;;;;9.20;5.70;;;;;;;19.13;81.79;100540.58;89238;1263;98988;-60
2022/08/24 00:44:09;;;;;;;9.90;5.40;;;;;;;19.11;81.80;100538.77;89292;1263;87833;-60
2022/08/24 00:46:24;;;;;;;8.50;5.00;;;;;;;19.10;81.86;100540.55;89264;1263;94315;-60
2022/08/24 00:48:44;;;;;;;10.00;6.70;;;;;;;19.10;81.81;100543.04;89254;1263;81323;-60
2022/08/24 00:51:00;;;;;;;10.40;5.70;;;;;;;19.02;81.89;100544.89;89256;1263;80506;-60
2022/08/24 00:53:13;;;;;;;9.90;5.50;;;;;;;18.94;82.02;100541.46;89270;1263;99142;-60
2022/08/24 00:55:30;;;;;;;8.60;5.60;;;;;;;18.92;81.92;100543.67;89258;1263;87811;-60
2022/08/24 00:57:43;;;;;;;9.50;5.30;;;;;;;18.90;81.92;100543.19;89054;1264;92642;-60
2022/08/24 00:59:57;;;;;;;9.60;6.30;;;;;;;18.86;82.03;100543.27;88989;1264;80781;-60
2022/08/24 01:02:13;;;;;;;9.20;5.30;;;;;;;18.85;82.07;100545.48;89249;1263;81425;-61
2022/08/24 01:04:28;;;;;;;9.00;5.30;;;;;;;18.85;82.09;100541.97;89246;1263;97203;-61
2022/08/24 01:06:37;;;;;;;7.30;5.20;;;;;;;18.83;81.99;100537.34;89254;1263;88661;-61
2022/08/24 01:08:51;;;;;;;8.80;5.10;;;;;;;18.76;82.04;100535.98;89257;1263;94173;-60
2022/08/24 01:11:07;;;;;;;8.80;5.40;;;;;;;18.72;82.09;100535.66;89252;1263;80905;-61
2022/08/24 01:13:17;;;;;;;10.70;6.30;;;;;;;18.70;82.11;100534.60;89265;1263;81943;-60
2022/08/24 01:15:30;;;;;;;8.40;5.20;;;;;;;18.68;82.09;100537.00;89251;1263;98864;-60
2022/08/24 01:20:14;;;;;;;8.90;5.80;;;;;;;18.55;82.33;100539.64;89289;1263;94501;-60
2022/08/24 01:22:49;;;;;;;7.50;5.50;;;;;;;18.49;82.51;100547.61;89292;1263;81690;-60
2022/08/24 01:24:58;;;;;;;7.10;5.20;;;;;;;18.50;82.40;100545.27;89250;1263;82004;-60
2022/08/24 01:27:13;;;;;;;6.80;5.10;;;;;;;18.51;82.46;100549.19;89298;1263;99179;-60
2022/08/24 01:29:30;;;;;;;7.90;5.20;;;;;;;18.51;82.47;100550.69;89287;1263;86395;-60
2022/08/24 01:31:45;;;;;;;9.80;5.80;;;;;;;18.42;82.61;100552.65;89267;1263;93519;-61
2022/08/24 01:33:57;;;;;;;8.90;5.60;;;;;;;18.38;82.74;100554.80;89205;1263;81918;-61
2022/08/24 01:36:15;;;;;;;7.90;6.00;;;;;;;18.41;82.77;100560.73;89295;1263;81735;-61
2022/08/24 01:38:29;;;;;;;6.60;5.40;;;;;;;18.40;82.79;100559.44;89243;1263;98252;-61
2022/08/24 01:40:50;;;;;;;6.90;5.00;;;;;;;18.41;82.75;100559.73;89244;1263;88816;-61
2022/08/24 01:43:06;;;;;;;8.10;5.90;;;;;;;18.41;82.76;100560.68;89226;1263;95492;-61
2022/08/24 01:45:17;;;;;;;8.50;5.20;;;;;;;18.37;82.99;100559.86;89251;1263;81127;-61
2022/08/24 01:47:29;;;;;;;9.90;5.20;;;;;;;18.32;83.03;100563.62;89297;1263;80690;-61
2022/08/24 01:49:43;;;;;;;10.70;5.50;;;;;;;18.31;83.05;100566.13;89273;1263;98901;-62
2022/08/24 01:51:53;;;;;;;9.10;5.50;;;;;;;18.25;83.12;100571.44;89276;1263;87627;-61
2022/08/24 01:54:07;;;;;;;8.30;5.00;;;;;;;18.26;83.20;100578.02;89244;1263;93965;-62
2022/08/24 01:56:14;;;;;;;;;;;;;;;18.28;83.12;100579.41;89287;1263;81724;-61
2022/08/24 01:58:26;;;;;;;6.80;5.00;;;;;;;18.30;83.10;100579.05;89282;1263;82578;-62
2022/08/24 02:00:42;;;;;;;7.50;5.00;;;;;;;18.29;83.05;100576.84;89247;1262;98842;-61
2022/08/24 02:02:55;;;;;;;9.10;5.30;;;;;;;18.28;83.10;100577.31;89266;1263;88446;-61
2022/08/24 02:05:07;;;;;;;7.80;5.30;;;;;;;18.23;83.01;100576.01;89060;1265;94874;-62
2022/08/24 02:07:18;;;;;;;8.40;5.50;;;;;;;18.17;83.20;100579.11;89274;1263;81060;-61
2022/08/24 02:09:28;;;;;;;6.10;5.20;;;;;;;18.12;83.23;100581.77;89263;1263;81553;-61
2022/08/24 02:11:38;;;;;;;10.10;5.30;;;;;;;18.09;83.31;100583.89;89237;1263;98616;-60
2022/08/24 02:13:47;;;;;;;6.10;4.80;;;;;;;18.08;83.30;100590.20;89261;1263;87980;-60
2022/08/24 02:16:04;;;;;;;7.60;5.10;;;;;;;18.08;83.34;100588.52;89248;1263;94875;-60
2022/08/24 02:18:15;;;;;;;11.10;5.60;;;;;;;18.08;83.33;100586.37;89230;1263;81656;-60
2022/08/24 02:20:25;;;;;;;7.80;5.10;;;;;;;18.06;83.35;100590.95;89258;1263;81858;-60
2022/08/24 02:22:35;;;;;;;7.00;5.90;;;;;;;18.00;83.52;100591.63;89220;1263;97800;-61
2022/08/24 02:24:46;;;;;;;5.80;4.50;;;;;;;17.99;83.50;100599.64;89229;1263;88199;-61
2022/08/24 02:27:01;;;;;;;6.30;5.40;;;;;;;18.01;83.46;100600.11;89262;1263;94462;-61
2022/08/24 02:29:11;;;;;;;8.40;5.60;;;;;;;18.03;83.57;100596.09;89225;1262;81668;-61
2022/08/24 02:31:20;;;;;;;8.40;5.90;;;;;;;18.07;83.64;100596.78;89247;1263;82041;-61
2022/08/24 02:33:32;;;;;;;11.10;5.80;;;;;;;18.11;83.52;100600.94;89247;1263;96907;-61
2022/08/24 02:35:44;;;;;;;8.30;5.70;;;;;;;18.12;83.68;100605.50;89229;1263;87597;-60
2022/08/24 02:37:55;;;;;;;8.60;5.50;;;;;;;18.14;83.68;100605.63;89233;1263;93652;-62
2022/08/24 02:40:06;;;;;;;6.90;5.80;;;;;;;18.13;83.59;100605.89;89215;1262;81567;-61
2022/08/24 02:42:19;;;;;;;7.10;5.50;;;;;;;18.14;83.59;100606.85;89286;1263;81479;-60
2022/08/24 02:44:30;;;;;;;11.80;6.30;;;;;;;18.13;83.56;100607.95;89228;1263;98295;-62
2022/08/24 02:46:39;;;;;;;12.10;7.00;;;;;;;18.09;83.64;100609.70;89292;1263;88304;-61
2022/08/24 02:48:50;;;;;;;9.80;7.20;;;;;;;18.12;83.78;100612.83;89232;1263;94586;-61
2022/08/24 02:51:03;;;;;;;11.80;6.30;;;;;;;18.13;83.69;100612.63;89258;1263;81835;-60
2022/08/24 02:53:16;;;;;;;7.90;6.50;;;;;;;18.10;83.70;100609.39;89235;1263;81493;-61
2022/08/24 02:55:26;;;;;;;9.30;6.10;;;;;;;18.11;83.75;100602.02;89255;1263;98514;-60
2022/08/24 02:57:34;;;;;;;11.20;6.00;;;;;;;18.13;83.71;100603.66;89245;1263;87547;-60
2022/08/24 02:59:43;;;;;;;8.50;6.10;;;;;;;18.11;84.06;100602.91;89228;1257;93678;-61
2022/08/24 03:01:55;;;;;;;9.40;6.70;;;;;;;18.05;84.20;100599.36;89237;1263;81673;-60
2022/08/24 03:04:05;;;;;;;8.50;6.30;;;;;;;18.07;84.11;100602.71;89241;1263;81920;-60
2022/08/24 03:06:15;;;;;;;10.10;6.70;;;;;;;18.10;84.04;100601.46;89247;1260;98464;-60
2022/08/24 03:08:25;;;;;;;13.30;6.60;;;;;;;18.10;83.98;100598.17;89251;1263;86265;-60
2022/08/24 03:10:34;;;;;;;11.50;6.80;;;;;;;18.07;84.25;100600.95;89237;1263;94422;-60
2022/08/24 03:13:00;;;;;;;8.20;6.60;;;;;;;18.09;84.25;100598.36;89235;1263;80980;-61
2022/08/24 03:15:12;;;;;;;7.10;5.90;;;;;;;18.09;84.22;100595.96;89212;1263;82727;-60
2022/08/24 03:17:22;;;;;;;8.00;5.70;;;;;;;18.07;84.22;100595.98;89234;1263;98991;-60
2022/08/24 03:19:32;;;;;;;6.70;5.30;;;;;;;18.15;84.27;100597.92;89251;1263;88602;-60
2022/08/24 03:21:41;;;;;;;7.10;6.00;;;;;;;18.19;84.29;100595.84;89243;1263;95403;-62
2022/08/24 03:23:52;;;;;;;8.40;6.50;;;;;;;18.21;84.25;100600.02;89212;1263;82368;-62
2022/08/24 03:26:11;;;;;;;8.90;6.20;;;;;;;18.22;84.36;100598.23;89223;1263;81798;-60
2022/08/24 03:28:25;;;;;;;8.70;6.40;;;;;;;18.20;84.47;100602.27;89205;1263;97637;-59
2022/08/24 03:30:39;;;;;;;8.20;6.40;;;;;;;18.17;84.56;100606.77;89227;1263;88970;-61
2022/08/24 03:32:49;;;;;;;7.90;5.50;;;;;;;18.14;84.69;100603.70;89217;1263;94648;-60
2022/08/24 03:34:57;;;;;;;8.70;6.40;;;;;;;18.19;84.80;100608.08;89189;1264;81791;-60
2022/08/24 03:37:07;;;;;;;8.20;5.50;;;;;;;18.25;84.88;100605.52;89163;1263;81642;-60
2022/08/24 03:39:18;;;;;;;9.20;5.90;;;;;;;18.31;84.73;100607.48;89210;1263;98451;-61
2022/08/24 03:41:29;;;;;;;7.80;5.70;;;;;;;18.32;84.67;100606.42;89263;1263;87815;-60
2022/08/24 03:43:48;;;;;;;7.30;6.50;;;;;;;18.34;84.80;100609.67;89181;1263;94163;-60
2022/08/24 03:45:57;;;;;;;11.00;6.80;;;;;;;18.39;84.69;100612.96;89199;1263;80776;-61
2022/08/24 03:48:09;;;;;;;7.90;6.10;;;;;;;18.44;84.65;100621.91;88858;1263;490274;-61
2022/08/24 03:50:22;;;;;;;6.90;6.10;;;;;;;18.49;84.70;100620.64;89213;1263;98636;-60
2022/08/24 03:52:32;;;;;;;7.80;6.20;;;;;;;18.53;84.75;100623.61;89249;1263;88282;-60
2022/08/24 03:54:40;;;;;;;9.00;6.70;;;;;;;18.55;84.72;100631.32;89203;1263;93627;-60
2022/08/24 03:56:50;;;;;;;8.90;6.60;;;;;;;18.56;84.81;100635.23;89237;1263;81060;-60
2022/08/24 03:59:01;;;;;;;11.20;6.40;;;;;;;18.61;84.86;100638.08;89247;1263;81504;-60
2022/08/24 04:01:16;;;;;;;8.90;6.40;;;;;;;18.65;84.73;100640.43;89251;1263;96384;-61
2022/08/24 04:03:26;;;;;;;9.70;6.50;;;;;;;18.64;84.99;100637.69;89235;1263;88974;-61
2022/08/24 04:05:41;;;;;;;9.80;6.90;;;;;;;18.71;85.09;100634.29;89227;1263;94978;-61
2022/08/24 04:07:53;;;;;;;8.70;6.90;;;;;;;18.80;84.88;100633.13;89212;1263;81701;-60
2022/08/24 04:10:07;;;;;;;9.80;6.40;;;;;;;18.83;84.86;100632.65;89234;1263;82510;-60
2022/08/24 04:12:16;;;;;;;9.50;7.00;;;;;;;18.86;84.82;100627.80;89221;1263;97769;-61
2022/08/24 04:14:28;;;;;;;8.60;6.60;;;;;;;18.89;84.81;100628.48;89250;1263;88657;-61
2022/08/24 04:16:37;;;;;;;9.30;6.20;;;;;;;18.94;84.88;100629.30;89193;1263;93830;-60
2022/08/24 04:18:49;;;;;;;9.60;6.10;;;;;;;19.00;84.77;100632.63;89086;1263;81556;-60
2022/08/24 04:20:58;;;;;;;9.10;6.20;;;;;;;19.03;84.93;100637.02;89248;1263;81596;-60
2022/08/24 04:23:09;;;;;;;7.20;6.00;;;;;;;19.05;85.05;100638.02;89266;1263;98506;-61
2022/08/24 04:25:21;;;;;;;9.50;6.60;;;;;;;19.13;84.84;100645.25;89204;1263;88744;-62
2022/08/24 04:27:30;;;;;;;9.20;6.50;;;;;;;19.20;84.72;100644.47;89203;1264;95513;-59
2022/08/24 04:29:43;;;;;;;7.90;6.50;;;;;;;19.23;84.86;100640.98;89211;1263;81251;-61
2022/08/24 04:31:57;;;;;;;10.40;6.40;;;;;;;19.34;84.83;100643.54;89232;1263;82447;-62
2022/08/24 04:34:07;;;;;;;7.30;5.70;;;;;;;19.43;84.66;100648.20;89174;1263;98256;-61
2022/08/24 04:36:20;;;;;;;8.90;6.80;;;;;;;19.51;84.76;100652.30;89236;1264;88833;-60
2022/08/24 04:38:30;;;;;;;8.50;6.70;;;;;;;19.56;84.58;100653.48;89216;1263;94792;-61
2022/08/24 04:40:43;;;;;;;10.50;7.30;;;;;;;19.59;84.66;100654.06;89212;1263;81019;-60
2022/08/24 04:42:52;;;;;;;7.10;6.20;;;;;;;19.68;84.71;100651.68;89213;1263;82674;-62
2022/08/24 04:45:04;;;;;;;8.10;7.00;;;;;;;19.72;84.44;100655.82;89181;1263;97176;-60
2022/08/24 04:47:21;;;;;;;9.00;6.20;;;;;;;19.80;84.17;100650.67;89208;1263;89298;-61
2022/08/24 04:49:33;;;;;;;9.20;6.80;;;;;;;19.89;84.02;100650.52;89192;1263;92759;-61
2022/08/24 04:51:42;;;;;;;9.10;7.10;;;;;;;19.98;84.15;100653.45;89235;1264;81169;-61
2022/08/24 04:53:52;;;;;;;11.70;7.10;;;;;;;20.05;84.07;100661.27;89189;1263;81527;-60
2022/08/24 04:56:01;;;;;;;8.70;7.30;;;;;;;20.05;84.14;100655.56;89225;1264;98907;-60
2022/08/24 04:58:10;;;;;;;10.70;7.20;;;;;;;20.09;83.91;100659.75;89212;1263;88068;-61
2022/08/24 05:00:22;;;;;;;12.00;6.80;;;;;;;20.15;84.06;100665.52;89241;1263;94212;-61
2022/08/24 05:02:32;;;;;;;9.30;7.60;;;;;;;20.26;83.81;100667.89;89215;1263;80550;-61
2022/08/24 05:04:41;;;;;;;8.40;6.50;;;;;;;20.36;83.65;100670.29;89245;1262;82930;-61
2022/08/24 05:06:51;;;;;;;10.00;7.20;;;;;;;20.34;83.60;100672.66;89216;1263;96845;-61
2022/08/24 05:09:00;;;;;;;9.20;6.40;;;;;;;20.40;83.63;100676.35;89244;1263;89043;-60
2022/08/24 05:11:10;;;;;;;8.20;6.40;;;;;;;20.47;83.56;100678.98;89170;1263;94906;-60
2022/08/24 05:13:22;;;;;;;8.30;6.50;;;;;;;20.57;83.41;100680.10;89177;1263;81867;-61
2022/08/24 05:15:39;;;;;;;8.30;7.10;;;;;;;20.55;83.60;100678.92;89211;1263;83029;-61
2022/08/24 05:17:49;;;;;;;7.80;6.50;;;;;;;20.62;83.36;100677.73;89176;1263;97368;-61
2022/08/24 05:20:02;;;;;;;9.20;6.70;;;;;;;20.70;83.33;100674.61;89180;1263;86372;-61
2022/08/24 05:22:12;;;;;;;7.80;6.80;;;;;;;20.77;83.25;100673.47;89201;1263;92545;-61
2022/08/24 05:24:23;;;;;;;9.80;7.20;;;;;;;20.80;83.00;100670.55;89195;1263;81640;-60
2022/08/24 05:26:36;;;;;;;11.50;6.40;;;;;;;20.88;82.87;100667.67;89216;1264;81341;-60
2022/08/24 05:28:47;;;;;;;10.30;6.60;;;;;;;20.98;82.86;100661.17;89205;1263;98953;-61
2022/08/24 05:30:56;;;;;;;11.30;6.30;;;;;;;21.15;83.21;100660.48;89222;1262;87585;-61
2022/08/24 05:33:06;;;;;;;10.30;6.00;;;;;;;21.39;82.85;100659.61;89211;1264;94711;-61
2022/08/24 05:35:21;;;;;;;9.60;6.20;;;;;;;21.64;82.49;100657.36;89228;1263;83007;-60
2022/08/24 05:37:30;;;;;;;8.10;6.00;;;;;;;21.86;82.32;100660.67;89186;1262;83056;-61
2022/08/24 05:39:42;;;;;;;10.60;6.40;;;;;;;21.97;82.02;100660.60;89164;1263;97926;-58
2022/08/24 05:41:51;;;;;;;10.00;6.40;;;;;;;22.13;81.47;100662.94;89215;1264;88274;-60
2022/08/24 05:44:03;;;;;;;10.60;5.50;;;;;;;22.30;81.02;100662.29;89199;1263;93689;-58
2022/08/24 05:46:17;;;;;;;8.50;6.20;;;;;;;22.34;80.75;100665.14;89017;1266;78238;-61
2022/08/24 05:48:29;;;;;;;7.50;6.40;;;;;;;22.47;80.56;100660.48;89197;1264;81618;-61
2022/08/24 05:50:42;;;;;;;13.30;6.30;;;;;;;22.55;80.24;100658.73;89195;1263;97921;-61
2022/08/24 05:52:53;;;;;;;13.10;5.80;;;;;;;22.70;79.82;100658.01;89213;1264;87640;-59
2022/08/24 05:55:06;;;;;;;9.40;5.80;;;;;;;22.79;79.67;100656.94;89163;1262;94125;-60
2022/08/24 05:57:17;;;;;;;12.20;5.90;;;;;;;22.94;79.31;100655.78;89220;1263;81783;-61
2022/08/24 05:59:26;;;;;;;15.50;6.80;;;;;;;23.08;78.86;100652.73;89246;1263;80811;-60
2022/08/24 06:01:38;;;;;;;14.00;6.90;;;;;;;23.14;78.67;100653.11;89221;1263;97517;-61
2022/08/24 06:03:54;;;;;;;15.60;6.90;;;;;;;23.08;78.64;100651.03;89194;1263;87545;-60
2022/08/24 06:06:02;;;;;;;;;;;;;;;23.13;78.59;100645.21;89244;1264;94976;-61
2022/08/24 06:08:12;;;;;;;12.60;6.40;;;;;;;23.10;78.41;100643.93;89212;1260;78818;-61
2022/08/24 06:10:28;;;;;;;11.30;6.80;;;;;;;23.17;78.45;100639.30;89215;1264;82513;-62
2022/08/24 06:12:38;;;;;;;21.80;8.20;;;;;;;23.25;77.91;100640.73;89184;1263;97937;-61
2022/08/24 06:14:53;;;;;;;10.50;6.90;;;;;;;23.37;77.47;100643.62;89182;1264;87574;-61
2022/08/24 06:17:06;;;;;;;13.90;7.40;;;;;;;23.41;77.10;100643.33;89199;1263;94775;-61
2022/08/24 06:19:19;;;;;;;13.20;6.90;;;;;;;23.45;76.92;100646.32;89173;1264;81413;-60
2022/08/24 06:21:31;;;;;;;16.50;6.80;;;;;;;23.52;76.56;100640.08;89174;1264;82965;-61
2022/08/24 06:23:44;;;;;;;27.60;8.50;;;;;;;23.56;76.41;100641.25;89190;1263;98161;-62
2022/08/24 06:28:19;;;;;;;16.80;6.10;;;;;;;23.65;76.08;100645.86;89192;1263;95684;-61
2022/08/24 06:30:30;;;;;;;23.30;7.80;;;;;;;23.77;76.06;100643.60;89205;1262;80372;-61
2022/08/24 06:32:45;;;;;;;23.10;7.90;;;;;;;23.81;75.91;100643.11;89214;1264;81307;-59
2022/08/24 06:35:00;;;;;;;25.50;8.30;;;;;;;23.84;75.55;100643.13;89183;1264;98465;-61
2022/08/24 06:37:14;;;;;;;23.10;8.50;;;;;;;23.95;75.13;100648.02;89223;1263;88501;-61
2022/08/24 06:39:30;;;;;;;31.00;9.30;;;;;;;24.01;75.11;100646.44;89193;1263;94076;-61
2022/08/24 06:41:40;;;;;;;26.10;8.70;;;;;;;24.12;74.80;100644.95;89160;1264;80609;-61
2022/08/24 06:43:49;;;;;;;26.30;8.20;;;;;;;24.15;74.87;100637.12;89012;1266;83027;-61
2022/08/24 06:45:59;;;;;;;22.70;8.30;;;;;;;24.28;74.89;100636.59;88998;1267;97711;-61
2022/08/24 06:48:11;;;;;;;21.50;7.40;;;;;;;24.40;74.69;100639.82;88993;1267;87566;-61
2022/08/24 06:50:23;;;;;;;17.00;7.30;;;;;;;24.62;74.57;100645.80;88996;1267;95308;-61
2022/08/24 06:52:38;;;;;;;18.40;7.60;;;;;;;24.98;74.04;100648.69;88976;1267;81662;-60
2022/08/24 06:54:55;;;;;;;30.80;9.80;;;;;;;25.28;73.63;100654.11;89008;1265;81670;-61
2022/08/24 06:57:07;;;;;;;29.70;7.90;;;;;;;25.42;73.25;100654.70;89015;1265;98904;-60
2022/08/24 06:59:17;;;;;;;26.00;8.40;;;;;;;25.58;72.92;100656.77;89014;1264;88171;-62
2022/08/24 07:01:28;;;;;;;28.10;9.00;;;;;;;25.74;72.73;100661.02;89012;1265;95041;-61
2022/08/24 07:03:38;;;;;;;22.50;8.40;;;;;;;26.04;72.33;100669.16;89012;1267;79663;-61
2022/08/24 07:05:58;;;;;;;26.10;8.90;;;;;;;26.39;71.72;100668.25;89026;1265;82096;-60
2022/08/24 07:08:10;;;;;;;35.30;10.50;;;;;;;26.53;71.28;100671.60;89023;1262;98936;-60
2022/08/24 07:10:18;;;;;;;32.10;11.00;;;;;;;26.69;71.04;100675.91;89011;1267;88604;-61
2022/08/24 07:12:29;;;;;;;25.70;9.00;;;;;;;27.13;70.25;100682.91;88979;1265;95279;-61
2022/08/24 07:14:39;;;;;;;24.40;9.80;;;;;;;27.85;69.91;100685.21;88983;1265;79069;-61
2022/08/24 07:16:48;;;;;;;27.50;8.70;;;;;;;28.47;68.86;100683.63;88993;1267;81485;-61
2022/08/24 07:18:57;;;;;;;23.90;7.50;;;;;;;28.99;67.51;100681.25;88957;1267;96523;-61
2022/08/24 07:21:09;;;;;;;17.90;7.00;;;;;;;29.23;66.63;100682.45;88984;1266;87926;-61
2022/08/24 07:23:19;;;;;;;16.50;6.40;;;;;;;29.22;66.01;100681.25;88995;1267;94143;-61
2022/08/24 07:25:35;;;;;;;22.70;7.30;;;;;;;29.02;65.67;100687.48;88972;1265;79203;-61
2022/08/24 07:27:48;;;;;;;19.00;7.00;;;;;;;28.83;65.22;100690.32;89036;1265;81674;-60
2022/08/24 07:29:58;;;;;;;18.70;7.20;;;;;;;28.76;64.93;100695.71;89000;1266;97710;-60
2022/08/24 07:32:09;;;;;;;13.60;6.90;;;;;;;28.69;64.80;100702.09;89002;1267;89164;-60
2022/08/24 07:34:24;;;;;;;16.40;7.30;;;;;;;28.67;64.32;100700.63;89028;1267;95128;-61
2022/08/24 07:36:35;;;;;;;16.80;7.40;;;;;;;28.80;64.00;100702.32;89011;1265;78991;-60
2022/08/24 07:38:45;;;;;;;14.20;7.00;;;;;;;29.07;63.46;100704.54;89022;1267;82665;-61
2022/08/24 07:40:56;;;;;;;17.00;7.00;;;;;;;29.45;63.62;100708.95;89047;1266;98129;-60
2022/08/24 07:43:07;;;;;;;11.80;5.50;;;;;;;29.79;62.57;100715.54;89192;1263;87850;-60
2022/08/24 07:45:21;;;;;;;16.20;6.60;;;;;;;29.99;62.21;100710.29;89183;1262;93874;-61
2022/08/24 07:47:30;;;;;;;16.00;6.90;;;;;;;30.14;61.76;100718.33;89178;1263;80687;-61
2022/08/24 07:49:43;;;;;;;13.70;5.60;;;;;;;29.91;61.47;100718.70;89149;1263;82463;-61
2022/08/24 07:51:52;;;;;;;17.30;5.70;;;;;;;30.03;61.97;100719.86;89234;1264;97205;-61
2022/08/24 07:54:03;;;;;;;16.40;6.30;;;;;;;30.37;61.23;100723.19;89228;1263;88979;-61
2022/08/24 07:56:15;;;;;;;18.30;5.90;;;;;;;30.62;60.74;100715.54;89251;1263;95014;-60
2022/08/24 07:58:24;;;;;;;15.80;6.10;;;;;;;30.73;60.13;100718.03;89088;1264;80095;-61
2022/08/24 08:00:36;;;;;;;12.50;5.60;;;;;;;30.81;59.97;100717.42;89175;1264;80593;-61
2022/08/24 08:02:49;;;;;;;16.40;6.00;;;;;;;31.14;59.88;100719.31;89140;1263;99150;-60
2022/08/24 08:05:03;;;;;;;17.10;6.10;;;;;;;31.35;59.29;100717.58;89169;1263;87997;-61
2022/08/24 08:07:13;;;;;;;15.60;5.50;;;;;;;31.34;58.52;100715.60;89165;1263;94923;-61
2022/08/24 08:09:22;;;;;;;17.40;6.20;;;;;;;31.20;58.15;100710.45;89176;1263;80678;-61
2022/08/24 08:11:32;;;;;;;21.30;6.40;;;;;;;30.88;57.72;100703.98;89190;1263;82100;-61
2022/08/24 08:13:41;;;;;;;17.90;5.90;;;;;;;30.54;57.66;100703.45;89218;1263;97184;-60
2022/08/24 08:15:50;;;;;;;15.10;5.80;;;;;;;30.20;57.99;100704.77;89180;1263;91334;-60
2022/08/24 08:17:59;;;;;;;15.00;6.50;;;;;;;30.03;58.69;100707.64;89138;1262;96181;-61
2022/08/24 08:20:12;;;;;;;23.10;6.50;;;;;;;29.82;58.88;100712.45;89131;1263;80218;-60
2022/08/24 08:24:49;;;;;;;15.00;5.90;;;;;;;29.35;59.43;100711.42;89126;1263;98135;-61
2022/08/24 08:27:00;;;;;;;21.00;6.30;;;;;;;29.27;59.45;100706.73;89226;1262;87548;-61
2022/08/24 08:29:11;;;;;;;16.50;6.60;;;;;;;29.14;59.70;100707.91;89090;1264;94972;-60
2022/08/24 08:31:23;;;;;;;19.50;6.30;;;;;;;29.03;59.68;100707.10;89160;1264;80175;-62
2022/08/24 08:33:34;;;;;;;19.90;6.20;;;;;;;28.88;59.71;100705.91;89137;1263;82110;-62
2022/08/24 08:35:51;;;;;;;17.20;6.10;;;;;;;28.80;60.08;100712.28;89150;1263;98031;-61
2022/08/24 08:38:00;;;;;;;11.80;5.60;;;;;;;28.92;60.36;100711.64;89197;1263;88517;-61
2022/08/24 08:40:28;;;;;;;15.70;5.80;;;;;;;29.07;60.49;100718.95;89153;1262;95408;-62
2022/08/24 08:43:00;;;;;;;13.60;5.70;;;;;;;29.15;60.52;100720.87;89141;1263;79999;-60
2022/08/24 08:45:44;;;;;;;14.40;5.80;;;;;;;29.24;60.82;100723.92;89145;1263;82191;-61
2022/08/24 08:48:49;;;;;;;16.50;6.00;;;;;;;29.42;60.63;100728.49;89148;1263;98726;-61
2022/08/24 08:51:49;;;;;;;17.50;6.00;;;;;;;29.50;60.32;100734.08;89147;1263;88654;-61
2022/08/24 08:54:29;;;;;;;17.40;6.50;;;;;;;29.46;60.14;100737.32;89134;1263;95402;-61
2022/08/24 08:57:09;;;;;;;17.00;5.60;;;;;;;29.45;59.75;100735.55;89173;1263;80705;-59
2022/08/24 08:59:44;;;;;;;15.10;5.80;;;;;;;29.40;59.90;100739.77;89192;1262;82117;-59
2022/08/24 09:02:08;;;;;;;18.40;6.40;;;;;;;29.23;59.98;100733.82;89167;1263;99158;-61
2022/08/24 09:04:46;;;;;;;15.20;5.80;;;;;;;29.15;60.05;100736.16;89153;1263;89039;-62
2022/08/24 09:07:26;;;;;;;15.60;5.30;;;;;;;29.02;60.11;100736.66;89138;1263;94561;-60
2022/08/24 09:10:02;;;;;;;15.00;6.20;;;;;;;29.22;60.31;100732.62;89185;1263;80590;-61
2022/08/24 09:12:26;;;;;;;14.10;5.70;;;;;;;29.56;60.15;100734.05;89178;1262;81934;-61
2022/08/24 09:15:31;;;;;;;13.10;5.80;;;;;;;29.96;60.15;100738.83;89165;1263;99705;-61
2022/08/24 09:17:59;;;;;;;15.20;5.60;;;;;;;30.36;59.91;100745.02;89153;1263;89223;-61
2022/08/24 09:20:46;;;;;;;12.10;5.90;;;;;;;30.41;59.65;100743.08;89155;1263;94795;-61
2022/08/24 09:23:09;;;;;;;12.80;6.00;;;;;;;30.34;59.52;100737.84;89176;1263;78331;-63
2022/08/24 09:25:36;;;;;;;12.10;6.10;;;;;;;30.45;59.74;100736.64;89163;1263;82666;-61
2022/08/24 09:28:09;;;;;;;9.90;6.10;;;;;;;30.65;58.48;100731.23;89141;1263;97634;-61
2022/08/24 09:30:25;;;;;;;12.90;5.50;;;;;;;30.60;58.56;100731.77;89173;1263;88208;-61
2022/08/24 09:33:00;;;;;;;10.80;6.40;;;;;;;30.54;57.96;100731.97;89215;1263;92951;-61
2022/08/24 09:35:21;;;;;;;12.60;5.90;;;;;;;30.33;58.38;100730.05;89195;1263;81122;-62
2022/08/24 09:37:56;;;;;;;10.00;5.40;;;;;;;29.99;58.77;100732.46;89198;1262;81771;-61
2022/08/24 09:40:29;;;;;;;14.60;5.70;;;;;;;29.92;59.02;100736.98;89147;1263;98979;-62
2022/08/24 09:43:32;;;;;;;16.00;6.20;;;;;;;30.01;59.22;100736.85;89189;1262;88142;-60
2022/08/24 09:46:26;;;;;;;11.90;6.00;;;;;;;29.93;59.01;100740.30;89139;1263;93994;-59
2022/08/24 09:49:33;;;;;;;13.70;5.60;;;;;;;30.12;59.07;100744.91;89151;1263;79901;-61
2022/08/24 09:52:18;;;;;;;9.50;5.20;;;;;;;30.45;59.27;100742.77;89195;1263;81559;-62
2022/08/24 09:55:03;;;;;;;;;;;;;;;30.74;59.16;100736.52;89168;1263;99429;-62
2022/08/24 09:57:42;;;;;;;12.10;5.40;;;;;;;31.07;58.45;100735.79;89160;1263;88326;-61
2022/08/24 10:00:19;;;;;;;12.80;5.70;;;;;;;31.28;57.96;100736.81;89125;1263;95468;-62
2022/08/24 10:02:59;;;;;;;14.30;6.30;;;;;;;31.37;58.14;100743.90;89160;1263;79102;-62
2022/08/24 10:05:27;;;;;;;13.90;5.90;;;;;;;31.43;57.75;100744.91;89184;1263;81710;-61
2022/08/24 10:07:53;;;;;;;11.20;5.80;;;;;;;31.27;57.55;100748.23;89165;1263;97851;-61
2022/08/24 10:10:27;;;;;;;12.70;5.60;;;;;;;31.08;57.30;100748.44;89146;1262;88968;-61
2022/08/24 10:12:58;;;;;;;12.40;5.70;;;;;;;30.82;57.28;100746.86;89160;1263;95324;-62
2022/08/24 10:15:21;;;;;;;14.60;5.50;;;;;;;30.68;57.31;100749.16;89145;1263;79117;-61
2022/08/24 10:17:45;;;;;;;14.70;5.70;;;;;;;30.45;57.71;100754.25;89198;1263;82319;-60
2022/08/24 10:20:11;;;;;;;12.10;5.40;;;;;;;30.23;58.25;100755.60;89131;1262;98771;-62
2022/08/24 10:22:45;;;;;;;15.00;5.50;;;;;;;30.11;58.35;100751.50;89179;1263;87867;-61
2022/08/24 10:25:24;;;;;;;15.90;5.50;;;;;;;30.04;57.59;100752.33;89111;1263;95275;-62
2022/08/24 10:27:50;;;;;;;16.90;5.90;;;;;;;29.83;57.97;100749.16;89138;1263;80441;-59
2022/08/24 10:30:41;;;;;;;12.20;5.90;;;;;;;29.77;58.38;100748.25;89171;1254;81361;-59
2022/08/24 10:33:09;;;;;;;12.60;5.10;;;;;;;29.93;57.72;100748.83;89189;1263;99759;-62
2022/08/24 10:35:27;;;;;;;23.30;6.20;;;;;;;30.02;57.88;100746.73;89148;1263;88490;-60